Time;durP1;ratioP1;P1;durP2;ratioP2;P2;SDS_P1;SDS_P2;PMS_P1;PMS_P2;Temp;Humidity;BMP_temperature;BMP_pressure;BME280_temperature;BME280_humidity;BME280_pressure;Samples;Min_cycle;Max_cycle;Signal;HPM_P1;HPM_P2
2023/09/20 00:01:33;;;;;;;3.03;2.00;;;14.20;1.00;;;;;;4995875;28;20399;-84
2023/09/20 00:04:01;;;;;;;4.73;2.60;;;14.20;1.00;;;;;;5029465;28;20474;-84
2023/09/20 00:06:27;;;;;;;2.67;2.05;;;14.20;1.00;;;;;;5029861;28;20391;-84
2023/09/20 00:08:52;;;;;;;2.50;1.70;;;14.10;1.00;;;;;;5017382;28;20989;-84
2023/09/20 00:11:18;;;;;;;2.90;2.10;;;14.10;1.00;;;;;;5009822;28;20396;-84
2023/09/20 00:13:45;;;;;;;4.97;2.30;;;14.10;1.00;;;;;;5011060;28;20416;-84
2023/09/20 00:16:11;;;;;;;2.92;1.90;;;13.80;1.00;;;;;;5009720;28;20412;-84
2023/09/20 00:18:37;;;;;;;3.42;2.50;;;14.00;1.00;;;;;;4992937;28;20391;-84
2023/09/20 00:21:03;;;;;;;3.40;2.10;;;14.00;1.00;;;;;;4990304;28;20478;-85
2023/09/20 00:23:29;;;;;;;2.35;2.15;;;14.10;1.00;;;;;;5001668;28;20385;-84
2023/09/20 00:25:55;;;;;;;2.67;2.42;;;14.10;1.00;;;;;;5010337;28;20497;-84
2023/09/20 00:28:21;;;;;;;2.10;1.90;;;14.20;1.00;;;;;;5000100;28;20488;-84
2023/09/20 00:30:47;;;;;;;5.22;2.40;;;14.00;1.00;;;;;;5009517;28;20408;-84
2023/09/20 00:33:13;;;;;;;6.47;2.22;;;14.00;1.00;;;;;;4996305;28;20808;-85
2023/09/20 00:35:39;;;;;;;3.30;2.00;;;14.00;1.00;;;;;;4998441;28;20433;-84
2023/09/20 00:38:05;;;;;;;3.33;2.20;;;14.00;1.00;;;;;;4999912;28;20401;-84
2023/09/20 00:40:33;;;;;;;2.63;1.98;;;14.00;1.00;;;;;;5002638;28;20394;-84
2023/09/20 00:42:58;;;;;;;3.50;2.00;;;14.00;1.00;;;;;;5027432;28;20404;-84
2023/09/20 00:45:24;;;;;;;1.80;1.60;;;14.00;1.00;;;;;;5003050;28;20957;-84
2023/09/20 00:47:56;;;;;;;2.00;1.80;;;14.00;1.00;;;;;;5010548;28;20463;-85
2023/09/20 00:50:22;;;;;;;2.13;1.92;;;14.00;1.00;;;;;;5009340;28;20441;-84
2023/09/20 00:52:51;;;;;;;3.53;2.30;;;14.00;1.00;;;;;;5009257;28;20449;-84
2023/09/20 00:55:24;;;;;;;4.10;2.10;;;14.00;1.00;;;;;;5005693;28;20497;-85
2023/09/20 00:57:52;;;;;;;3.00;2.10;;;14.00;1.00;;;;;;4991169;28;20480;-84
2023/09/20 01:00:27;;;;;;;4.32;2.20;;;14.00;1.00;;;;;;4999575;28;20405;-84
2023/09/20 01:02:57;;;;;;;2.75;2.15;;;14.00;1.00;;;;;;5005448;28;20417;-84
2023/09/20 01:05:25;;;;;;;3.30;1.90;;;14.10;1.00;;;;;;5024773;28;20402;-84
2023/09/20 01:07:54;;;;;;;2.90;2.30;;;14.00;1.00;;;;;;5008656;28;20409;-84
2023/09/20 01:10:25;;;;;;;3.22;2.00;;;14.00;1.00;;;;;;4994993;28;20502;-85
2023/09/20 01:12:56;;;;;;;2.67;2.10;;;14.10;1.00;;;;;;5006121;28;20822;-85
2023/09/20 01:15:22;;;;;;;3.57;1.80;;;14.00;1.00;;;;;;5011106;28;20402;-85
2023/09/20 01:17:49;;;;;;;2.30;2.00;;;14.10;1.00;;;;;;5014899;28;20394;-84
2023/09/20 01:20:20;;;;;;;5.85;2.10;;;14.10;1.00;;;;;;5021526;28;20468;-84
2023/09/20 01:22:47;;;;;;;2.92;2.10;;;14.00;1.00;;;;;;5001493;28;20405;-84
2023/09/20 01:25:32;;;;;;;2.20;2.00;;;13.90;1.00;;;;;;4994993;28;20398;-84
2023/09/20 01:28:00;;;;;;;2.47;2.28;;;13.90;1.00;;;;;;4993904;28;20401;-85
2023/09/20 01:30:28;;;;;;;3.22;2.20;;;13.90;1.00;;;;;;4993575;28;20469;-85
2023/09/20 01:32:55;;;;;;;3.10;2.30;;;13.80;1.00;;;;;;5005858;28;20413;-85
2023/09/20 01:35:23;;;;;;;4.55;1.95;;;13.90;1.00;;;;;;5012912;28;20468;-84
2023/09/20 01:37:52;;;;;;;2.50;1.90;;;13.70;1.00;;;;;;4999717;28;20465;-84
2023/09/20 01:40:23;;;;;;;3.33;1.95;;;13.70;1.00;;;;;;4993091;28;20409;-85
2023/09/20 01:42:49;;;;;;;4.35;2.00;;;13.60;1.00;;;;;;4994396;28;20391;-85
2023/09/20 01:45:19;;;;;;;2.20;2.00;;;13.70;1.00;;;;;;4992879;28;20941;-84
2023/09/20 01:47:50;;;;;;;3.45;2.10;;;13.60;1.00;;;;;;4999804;28;20449;-84
2023/09/20 01:50:19;;;;;;;2.67;1.90;;;13.60;1.00;;;;;;5004233;28;20394;-84
2023/09/20 01:52:49;;;;;;;2.53;2.20;;;13.30;1.00;;;;;;5030609;28;20413;-85
2023/09/20 01:55:17;;;;;;;3.50;2.40;;;13.50;1.00;;;;;;5023554;28;20404;-84
2023/09/20 01:57:47;;;;;;;2.53;2.25;;;13.50;1.00;;;;;;5013873;28;20487;-85
2023/09/20 02:00:21;;;;;;;2.40;2.20;;;13.50;1.00;;;;;;5014436;28;20385;-85
2023/09/20 02:02:51;;;;;;;3.33;2.40;;;13.40;1.00;;;;;;4992914;28;20448;-84
2023/09/20 02:05:17;;;;;;;4.70;2.20;;;13.50;1.00;;;;;;4995475;28;20410;-84
2023/09/20 02:07:45;;;;;;;2.50;1.90;;;13.40;1.00;;;;;;4993158;28;20401;-84
2023/09/20 02:10:11;;;;;;;2.50;2.30;;;13.40;1.00;;;;;;4992847;28;20394;-83
2023/09/20 02:12:36;;;;;;;2.70;2.28;;;13.40;1.00;;;;;;4993878;28;20915;-83
2023/09/20 02:15:07;;;;;;;3.83;2.20;;;13.60;1.00;;;;;;5005779;28;20412;-84
2023/09/20 02:17:35;;;;;;;3.50;2.20;;;13.50;1.00;;;;;;5012628;28;20427;-83
2023/09/20 02:20:08;;;;;;;3.90;2.00;;;13.70;1.00;;;;;;4997365;28;20423;-83
2023/09/20 02:22:35;;;;;;;3.23;2.40;;;13.60;1.00;;;;;;4993660;28;20391;-83
2023/09/20 02:25:01;;;;;;;3.40;2.40;;;13.70;1.00;;;;;;4993640;28;20386;-84
2023/09/20 02:27:27;;;;;;;2.20;2.00;;;13.60;1.00;;;;;;5000532;28;20416;-83
2023/09/20 02:29:54;;;;;;;3.00;2.00;;;13.60;1.00;;;;;;5010192;28;20419;-84
2023/09/20 02:32:19;;;;;;;2.53;1.90;;;13.50;1.00;;;;;;5003862;28;20415;-84
2023/09/20 02:34:45;;;;;;;4.30;2.03;;;13.60;1.00;;;;;;4992708;28;20394;-83
2023/09/20 02:37:10;;;;;;;2.53;2.03;;;13.50;1.00;;;;;;5009786;28;20400;-84
2023/09/20 02:39:36;;;;;;;2.20;2.00;;;13.60;1.00;;;;;;5012040;28;20421;-84
2023/09/20 02:42:02;;;;;;;4.50;2.10;;;13.40;1.00;;;;;;5006574;28;20390;-83
2023/09/20 02:44:27;;;;;;;5.90;2.47;;;13.50;1.00;;;;;;5042666;23;20499;-86
2023/09/20 02:46:53;;;;;;;2.40;2.20;;;13.40;1.00;;;;;;5032496;28;20411;-86
2023/09/20 02:49:20;;;;;;;2.15;1.90;;;13.40;1.00;;;;;;5031844;28;20805;-85
2023/09/20 02:51:47;;;;;;;2.10;1.90;;;13.40;1.00;;;;;;5032821;28;20391;-85
2023/09/20 02:54:13;;;;;;;3.10;2.00;;;13.30;1.00;;;;;;5020681;28;20435;-86
2023/09/20 02:56:39;;;;;;;2.33;1.60;;;13.50;1.00;;;;;;5012103;28;20397;-85
2023/09/20 02:59:07;;;;;;;2.70;2.10;;;13.40;1.00;;;;;;5012793;28;20409;-86
2023/09/20 03:01:33;;;;;;;2.20;2.00;;;13.50;1.00;;;;;;5011593;28;20490;-86
2023/09/20 03:03:58;;;;;;;3.50;2.00;;;13.40;1.00;;;;;;5011783;28;20457;-85
2023/09/20 03:06:24;;;;;;;2.97;2.13;;;13.20;1.00;;;;;;5010091;28;20965;-85
2023/09/20 03:08:51;;;;;;;2.30;1.90;;;13.30;1.00;;;;;;5012938;28;20496;-86
2023/09/20 03:11:25;;;;;;;3.00;1.90;;;13.30;1.00;;;;;;5011485;28;20381;-86
2023/09/20 03:13:51;;;;;;;3.30;1.80;;;13.20;1.00;;;;;;5011998;28;20409;-85
2023/09/20 03:16:18;;;;;;;3.08;2.20;;;13.20;1.00;;;;;;5012027;28;20811;-85
2023/09/20 03:18:45;;;;;;;2.10;1.90;;;13.30;1.00;;;;;;5011790;28;20385;-86
2023/09/20 03:21:11;;;;;;;2.30;2.10;;;13.30;1.00;;;;;;5026165;28;20390;-86
2023/09/20 03:23:37;;;;;;;3.10;2.00;;;13.30;1.00;;;;;;5025594;28;20408;-86
2023/09/20 03:26:04;;;;;;;2.40;2.20;;;13.50;1.00;;;;;;5011469;28;20772;-85
2023/09/20 03:28:33;;;;;;;2.60;1.90;;;13.30;1.00;;;;;;5012487;28;20393;-86
2023/09/20 03:31:02;;;;;;;2.40;1.90;;;13.20;1.00;;;;;;5011536;28;20548;-86
2023/09/20 03:33:31;;;;;;;3.22;2.10;;;13.40;1.00;;;;;;5010489;28;20504;-86
2023/09/20 03:35:58;;;;;;;2.95;2.00;;;13.50;1.00;;;;;;5011965;28;20451;-85
2023/09/20 03:38:24;;;;;;;3.85;2.10;;;13.60;1.00;;;;;;5013199;28;20407;-86
2023/09/20 03:40:50;;;;;;;3.60;2.00;;;13.60;1.00;;;;;;5010925;28;20481;-86
2023/09/20 03:43:15;;;;;;;2.72;2.00;;;13.50;1.00;;;;;;5011818;28;20440;-84
2023/09/20 03:45:42;;;;;;;3.72;2.05;;;13.40;1.00;;;;;;5014777;28;20403;-85
2023/09/20 03:48:07;;;;;;;3.10;1.90;;;13.50;1.00;;;;;;5012775;28;20401;-85
2023/09/20 03:50:33;;;;;;;4.32;2.40;;;13.50;1.00;;;;;;5019006;28;20393;-85
2023/09/20 03:53:00;;;;;;;2.10;1.90;;;13.50;1.00;;;;;;5013557;28;20412;-85
2023/09/20 03:55:26;;;;;;;3.75;2.17;;;13.80;1.00;;;;;;5011873;28;20405;-85
2023/09/20 03:57:52;;;;;;;2.22;1.98;;;13.40;1.00;;;;;;5013736;28;20508;-86
2023/09/20 04:00:24;;;;;;;3.23;2.00;;;13.30;1.00;;;;;;5013822;28;20420;-85
2023/09/20 04:02:53;;;;;;;2.30;2.10;;;13.40;1.00;;;;;;5011846;28;20388;-85
2023/09/20 04:05:19;;;;;;;2.37;2.10;;;13.40;1.00;;;;;;5011965;28;20397;-85
2023/09/20 04:07:47;;;;;;;2.30;2.10;;;13.40;1.00;;;;;;5011658;28;20495;-86
2023/09/20 04:10:16;;;;;;;6.40;2.10;;;13.40;1.00;;;;;;5013190;28;20389;-85
2023/09/20 04:12:42;;;;;;;3.42;1.85;;;13.40;1.00;;;;;;5012489;28;20409;-85
2023/09/20 04:15:08;;;;;;;2.47;2.10;;;13.40;1.00;;;;;;5012982;28;20381;-86
2023/09/20 04:17:35;;;;;;;2.70;1.90;;;13.50;1.00;;;;;;5027601;28;20381;-85
2023/09/20 04:20:04;;;;;;;1.87;1.60;;;13.30;1.00;;;;;;5017805;28;20388;-86
2023/09/20 04:22:32;;;;;;;3.10;2.10;;;13.30;1.00;;;;;;5020026;28;20447;-85
2023/09/20 04:25:01;;;;;;;2.40;1.90;;;13.20;1.00;;;;;;5012090;28;20477;-86
2023/09/20 04:27:29;;;;;;;2.40;2.10;;;13.20;1.00;;;;;;5016342;28;20410;-85
2023/09/20 04:29:55;;;;;;;2.95;1.88;;;13.10;1.00;;;;;;5013560;28;20495;-85
2023/09/20 04:32:21;;;;;;;3.70;2.30;;;13.10;1.00;;;;;;5013622;28;20499;-85
2023/09/20 04:34:47;;;;;;;3.53;2.05;;;13.00;1.00;;;;;;5018336;28;20397;-86
2023/09/20 04:37:13;;;;;;;2.60;2.13;;;13.00;1.00;;;;;;5012443;28;20395;-85
2023/09/20 04:39:39;;;;;;;2.90;1.83;;;13.10;1.00;;;;;;5013970;28;20404;-85
2023/09/20 04:42:07;;;;;;;1.90;1.80;;;13.00;1.00;;;;;;5012795;28;20400;-86
2023/09/20 04:44:33;;;;;;;3.80;2.60;;;13.00;1.00;;;;;;5013358;28;20777;-85
2023/09/20 04:46:58;;;;;;;2.45;2.25;;;12.80;1.00;;;;;;5012746;28;20401;-85
2023/09/20 04:49:24;;;;;;;3.00;2.00;;;13.00;1.00;;;;;;5012769;28;20393;-86
2023/09/20 04:51:50;;;;;;;5.30;2.10;;;13.00;1.00;;;;;;5012143;28;20388;-85
2023/09/20 04:54:15;;;;;;;2.38;2.10;;;13.00;1.00;;;;;;5011666;28;20496;-85
2023/09/20 04:56:47;;;;;;;2.80;1.80;;;13.10;1.00;;;;;;5013187;28;20398;-85
2023/09/20 04:59:16;;;;;;;4.15;2.10;;;13.00;1.00;;;;;;5011018;28;20907;-85
2023/09/20 05:01:42;;;;;;;4.05;2.53;;;12.90;1.00;;;;;;5009063;28;20479;-85
2023/09/20 05:04:13;;;;;;;2.23;1.93;;;12.90;1.00;;;;;;5010581;28;20435;-85
2023/09/20 05:06:42;;;;;;;2.90;1.90;;;12.90;1.00;;;;;;5008922;28;20931;-85
2023/09/20 05:09:11;;;;;;;3.47;2.00;;;12.90;1.00;;;;;;5012505;28;20401;-86
2023/09/20 05:11:36;;;;;;;2.90;2.10;;;12.90;1.00;;;;;;5012832;28;20403;-86
2023/09/20 05:14:03;;;;;;;3.00;2.20;;;12.90;1.00;;;;;;5005762;28;20485;-86
2023/09/20 05:16:28;;;;;;;2.67;2.00;;;13.10;1.00;;;;;;5014235;28;20420;-85
2023/09/20 05:18:54;;;;;;;2.70;2.00;;;13.10;1.00;;;;;;5016382;28;20408;-86
2023/09/20 05:21:19;;;;;;;2.58;1.90;;;13.00;1.00;;;;;;5017619;28;20399;-85
2023/09/20 05:23:46;;;;;;;3.50;2.10;;;13.00;1.00;;;;;;5008970;28;20400;-85
2023/09/20 05:26:11;;;;;;;2.60;1.90;;;13.10;1.00;;;;;;5009492;28;20455;-85
2023/09/20 05:28:37;;;;;;;3.10;2.25;;;13.10;1.00;;;;;;5001983;28;20887;-85
2023/09/20 05:31:03;;;;;;;2.70;2.10;;;13.10;1.00;;;;;;5010714;28;20401;-85
2023/09/20 05:33:30;;;;;;;3.97;1.95;;;13.10;1.00;;;;;;5011612;28;20409;-85
2023/09/20 05:35:57;;;;;;;3.97;2.20;;;13.20;1.00;;;;;;5025626;28;20493;-86
2023/09/20 05:38:24;;;;;;;2.87;1.90;;;13.30;1.00;;;;;;5010744;28;20785;-86
2023/09/20 05:40:50;;;;;;;3.28;1.90;;;13.30;1.00;;;;;;5011871;28;20392;-86
2023/09/20 05:43:16;;;;;;;4.40;2.00;;;13.20;1.00;;;;;;5010990;28;20412;-86
2023/09/20 05:45:42;;;;;;;3.50;2.20;;;13.20;1.00;;;;;;5011958;28;20428;-85
2023/09/20 05:48:09;;;;;;;3.80;2.20;;;13.20;1.00;;;;;;5012995;28;20952;-85
2023/09/20 05:50:35;;;;;;;2.60;2.30;;;13.40;1.00;;;;;;5010740;28;20456;-85
2023/09/20 05:53:06;;;;;;;2.80;1.90;;;13.20;1.00;;;;;;5010876;28;20411;-86
2023/09/20 05:55:33;;;;;;;2.30;2.10;;;13.20;1.00;;;;;;5011196;28;20785;-86
2023/09/20 05:58:02;;;;;;;3.42;2.08;;;13.30;1.00;;;;;;5013887;28;20397;-85
2023/09/20 06:00:29;;;;;;;2.70;2.00;;;13.40;1.00;;;;;;5015067;28;20481;-85
2023/09/20 06:02:56;;;;;;;3.10;1.98;;;13.40;1.00;;;;;;5014404;28;20393;-86
2023/09/20 06:05:24;;;;;;;2.42;2.05;;;13.40;1.00;;;;;;5016211;28;20950;-86
2023/09/20 06:07:51;;;;;;;5.60;2.00;;;13.50;1.00;;;;;;5016709;28;20404;-85
2023/09/20 06:10:18;;;;;;;2.50;2.10;;;13.60;1.00;;;;;;5014345;28;20389;-85
2023/09/20 06:12:48;;;;;;;2.60;1.73;;;13.70;1.00;;;;;;5014959;28;20416;-85
2023/09/20 06:15:14;;;;;;;2.42;1.95;;;13.70;1.00;;;;;;5006228;28;20464;-86
2023/09/20 06:17:42;;;;;;;3.25;2.40;;;13.80;1.00;;;;;;5014460;28;20392;-85
2023/09/20 06:20:12;;;;;;;2.20;2.00;;;13.80;1.00;;;;;;5014390;28;20888;-86
2023/09/20 06:22:38;;;;;;;2.42;1.83;;;13.90;1.00;;;;;;5013159;28;20424;-85
2023/09/20 06:25:06;;;;;;;2.22;1.70;;;13.90;1.00;;;;;;5025910;28;20456;-84
2023/09/20 06:27:32;;;;;;;3.00;1.90;;;14.10;1.00;;;;;;5036600;28;20408;-84
2023/09/20 06:29:59;;;;;;;2.15;1.77;;;14.10;1.00;;;;;;5038269;28;20412;-84
2023/09/20 06:32:24;;;;;;;4.60;2.00;;;14.20;1.00;;;;;;5037365;28;20423;-85
2023/09/20 06:34:50;;;;;;;3.63;2.10;;;14.30;1.00;;;;;;5014997;28;20389;-87
2023/09/20 06:37:16;;;;;;;2.40;2.07;;;13.30;1.00;;;;;;5014018;28;20488;-85
2023/09/20 06:39:43;;;;;;;2.50;2.23;;;14.50;1.00;;;;;;5013749;28;20790;-85
2023/09/20 06:42:09;;;;;;;3.50;2.20;;;14.70;1.00;;;;;;5013407;28;20463;-85
2023/09/20 06:44:35;;;;;;;3.00;1.80;;;14.80;1.00;;;;;;5014358;28;20440;-86
2023/09/20 06:47:06;;;;;;;3.80;2.00;;;14.90;1.00;;;;;;5014535;28;20880;-87
2023/09/20 06:49:32;;;;;;;3.90;2.50;;;15.40;1.00;;;;;;5013556;28;20397;-86
2023/09/20 06:52:01;;;;;;;3.15;1.83;;;15.10;1.00;;;;;;5014266;28;20381;-87
2023/09/20 06:54:28;;;;;;;2.65;2.42;;;15.20;1.00;;;;;;5013717;28;20414;-86
2023/09/20 06:56:54;;;;;;;4.53;2.35;;;15.30;1.00;;;;;;4995784;28;20418;-87
2023/09/20 06:59:20;;;;;;;3.67;2.13;;;15.30;1.00;;;;;;4994651;28;20445;-86
2023/09/20 07:01:47;;;;;;;2.90;2.05;;;15.40;1.00;;;;;;5009507;28;20386;-87
2023/09/20 07:04:12;;;;;;;3.25;2.38;;;15.40;1.00;;;;;;5015121;28;20978;-85
2023/09/20 07:06:38;;;;;;;2.70;2.30;;;15.40;1.00;;;;;;5015015;28;20385;-86
2023/09/20 07:09:05;;;;;;;2.27;2.00;;;15.50;1.00;;;;;;5014060;28;20434;-86
2023/09/20 07:11:31;;;;;;;3.53;2.60;;;15.60;1.00;;;;;;5014680;28;20385;-86
2023/09/20 07:13:59;;;;;;;4.05;2.45;;;15.40;1.00;;;;;;5013653;28;20413;-86
2023/09/20 07:16:25;;;;;;;2.87;2.00;;;15.70;1.00;;;;;;5016395;28;20397;-86
2023/09/20 07:18:51;;;;;;;3.63;2.00;;;15.70;1.00;;;;;;5024114;28;20417;-87
2023/09/20 07:21:16;;;;;;;2.70;2.27;;;15.80;1.00;;;;;;5032331;28;20479;-86
2023/09/20 07:23:42;;;;;;;2.90;2.00;;;15.80;1.00;;;;;;5035056;28;20394;-85
2023/09/20 07:26:08;;;;;;;3.42;1.98;;;15.90;1.00;;;;;;5054147;28;20402;-86
2023/09/20 07:28:36;;;;;;;2.80;2.20;;;16.00;1.00;;;;;;5040857;28;20394;-85
2023/09/20 07:31:03;;;;;;;2.60;2.10;;;16.00;1.00;;;;;;5019556;28;20393;-86
2023/09/20 07:33:31;;;;;;;3.38;2.20;;;16.00;1.00;;;;;;5017728;28;20420;-84
2023/09/20 07:36:00;;;;;;;3.40;2.20;;;16.10;1.00;;;;;;5014336;28;20392;-86
2023/09/20 07:38:28;;;;;;;3.53;2.20;;;16.10;1.00;;;;;;5013984;28;20482;-85
2023/09/20 07:41:17;;;;;;;2.85;2.08;;;16.30;1.00;;;;;;5016138;28;20915;-85
2023/09/20 07:43:47;;;;;;;2.40;1.93;;;16.40;1.00;;;;;;5012904;28;21056;-85
2023/09/20 07:46:13;;;;;;;2.63;1.83;;;16.50;1.00;;;;;;5011920;28;20397;-85
2023/09/20 07:48:47;;;;;;;2.13;1.92;;;16.50;1.00;;;;;;5013373;28;20389;-85
2023/09/20 07:51:14;;;;;;;2.60;2.20;;;16.60;1.00;;;;;;5012913;28;20774;-85
2023/09/20 07:53:40;;;;;;;2.65;2.13;;;16.70;1.00;;;;;;5013090;28;20416;-85
2023/09/20 07:56:07;;;;;;;2.67;1.63;;;16.70;1.00;;;;;;5013515;28;20395;-86
2023/09/20 07:58:36;;;;;;;3.10;1.90;;;16.80;1.00;;;;;;5013981;28;20481;-86
2023/09/20 08:01:12;;;;;;;3.90;1.63;;;16.80;1.00;;;;;;5013167;28;20389;-86
2023/09/20 08:03:50;;;;;;;2.40;1.80;;;17.00;1.00;;;;;;5014665;28;20950;-85
2023/09/20 08:06:19;;;;;;;2.20;1.60;;;17.10;1.00;;;;;;5012014;28;20441;-85
2023/09/20 08:08:45;;;;;;;2.40;1.70;;;17.20;1.00;;;;;;5016688;28;20396;-87
2023/09/20 08:11:11;;;;;;;3.60;2.37;;;17.30;1.00;;;;;;5017129;28;20472;-87
2023/09/20 08:13:36;;;;;;;4.10;1.70;;;17.50;1.00;;;;;;5011988;28;20920;-87
2023/09/20 08:16:02;;;;;;;2.10;1.90;;;17.50;1.00;;;;;;5012681;28;20385;-87
2023/09/20 08:21:12;;;;;;;2.50;2.00;;;17.60;1.00;;;;;;5030879;28;20386;-87
2023/09/20 09:02:13;;;;;;;4.15;1.80;;;19.70;1.00;;;;;;4995294;28;20401;-87
2023/09/20 09:04:46;;;;;;;3.05;1.70;;;19.70;1.00;;;;;;4993524;28;20898;-86
2023/09/20 09:07:13;;;;;;;1.60;1.40;;;19.90;1.00;;;;;;4999712;28;20393;-86
2023/09/20 09:09:40;;;;;;;1.50;1.40;;;19.40;1.00;;;;;;5013141;28;20482;-86
2023/09/20 09:12:05;;;;;;;1.95;1.40;;;20.30;1.00;;;;;;5013373;28;20388;-87
2023/09/20 09:14:35;;;;;;;3.55;1.70;;;20.20;1.00;;;;;;5012230;28;20388;-86
2023/09/20 09:17:06;;;;;;;2.50;1.70;;;20.30;1.00;;;;;;5018789;28;20460;-86
2023/09/20 09:19:32;;;;;;;2.10;1.50;;;20.50;1.00;;;;;;5024659;28;20510;-87
2023/09/20 09:21:58;;;;;;;2.65;1.75;;;20.60;1.00;;;;;;5032130;28;20384;-86
2023/09/20 09:24:24;;;;;;;3.13;2.08;;;20.50;1.00;;;;;;5020224;28;20407;-86
2023/09/20 09:27:04;;;;;;;3.23;2.10;;;20.50;1.00;;;;;;5011251;28;20400;-86
2023/09/20 09:29:30;;;;;;;3.47;1.83;;;20.40;1.00;;;;;;5011239;28;20397;-86
2023/09/20 09:31:56;;;;;;;2.40;2.00;;;20.40;1.00;;;;;;5012173;28;20906;-86
2023/09/20 09:34:22;;;;;;;3.40;2.10;;;20.40;1.00;;;;;;5015028;28;20413;-86
2023/09/20 09:36:48;;;;;;;2.90;2.20;;;20.70;1.00;;;;;;5015016;28;20893;-86
2023/09/20 09:39:14;;;;;;;2.50;2.00;;;20.60;1.00;;;;;;5014689;28;20498;-86
2023/09/20 09:41:44;;;;;;;2.10;1.70;;;20.50;1.00;;;;;;5015493;28;20384;-86
2023/09/20 09:44:11;;;;;;;3.33;2.00;;;20.50;1.00;;;;;;5014778;28;20412;-87
2023/09/20 09:46:41;;;;;;;4.25;2.15;;;20.60;1.00;;;;;;5015049;28;20385;-86
2023/09/20 09:49:18;;;;;;;2.80;2.13;;;21.10;1.00;;;;;;5016352;28;20466;-86
2023/09/20 09:51:45;;;;;;;2.35;1.70;;;21.10;1.00;;;;;;5014613;28;20391;-86
2023/09/20 09:54:15;;;;;;;2.60;1.80;;;21.10;1.00;;;;;;5014668;28;20506;-86
2023/09/20 09:56:41;;;;;;;4.30;1.90;;;21.50;1.00;;;;;;5014044;28;20400;-86
2023/09/20 09:59:07;;;;;;;3.50;1.92;;;20.50;1.00;;;;;;5014632;28;20596;-87
2023/09/20 10:01:36;;;;;;;2.88;1.80;;;21.30;1.00;;;;;;5016996;28;20420;-86
2023/09/20 10:04:07;;;;;;;2.00;1.60;;;21.40;1.00;;;;;;5014050;28;20397;-84
2023/09/20 10:06:38;;;;;;;4.40;1.80;;;21.40;1.00;;;;;;5013624;28;20393;-85
2023/09/20 10:09:10;;;;;;;4.13;2.00;;;21.40;1.00;;;;;;5013938;28;20409;-84
2023/09/20 10:11:37;;;;;;;2.10;1.88;;;21.60;1.00;;;;;;5014368;28;20388;-85
2023/09/20 10:14:07;;;;;;;1.80;1.50;;;22.10;1.00;;;;;;5014106;28;20404;-86
2023/09/20 10:16:34;;;;;;;3.47;1.50;;;21.60;1.00;;;;;;4993821;28;20490;-86
2023/09/20 10:18:59;;;;;;;2.58;1.70;;;21.70;1.00;;;;;;4999431;28;20403;-85
2023/09/20 10:21:26;;;;;;;2.23;1.87;;;21.80;1.00;;;;;;5035427;28;20927;-86
2023/09/20 10:24:00;;;;;;;4.70;1.92;;;21.90;1.00;;;;;;5037524;28;20468;-86
2023/09/20 10:26:26;;;;;;;2.05;1.38;;;21.80;1.00;;;;;;5015033;28;20405;-86
2023/09/20 10:28:57;;;;;;;3.63;1.73;;;21.90;1.00;;;;;;5014612;28;20412;-85
2023/09/20 10:31:23;;;;;;;1.90;1.30;;;21.80;1.00;;;;;;5013755;28;20393;-85
2023/09/20 10:33:55;;;;;;;3.00;1.60;;;21.80;1.00;;;;;;5012904;28;20404;-85
2023/09/20 10:36:27;;;;;;;2.17;1.60;;;21.90;1.00;;;;;;5013834;28;20385;-85
2023/09/20 10:39:19;;;;;;;2.15;1.50;;;22.30;1.00;;;;;;5015410;28;20385;-85
2023/09/20 10:41:46;;;;;;;1.35;1.17;;;22.00;1.00;;;;;;5012761;28;20551;-86
2023/09/20 10:44:38;;;;;;;3.30;1.60;;;22.10;1.00;;;;;;5013543;28;20460;-86
2023/09/20 10:47:14;;;;;;;2.30;1.40;;;22.40;1.00;;;;;;5013822;28;20404;-86
2023/09/20 10:49:48;;;;;;;1.55;1.30;;;22.60;1.00;;;;;;5014359;28;20393;-85
2023/09/20 10:52:34;;;;;;;1.40;1.20;;;22.30;1.00;;;;;;5015528;28;20388;-87
2023/09/20 10:55:35;;;;;;;2.53;1.30;;;22.50;1.00;;;;;;5008423;28;20389;-87
2023/09/20 10:58:01;;;;;;;2.92;1.40;;;22.70;1.00;;;;;;4993954;28;20497;-85
2023/09/20 11:00:30;;;;;;;1.60;1.40;;;23.00;1.00;;;;;;5015149;28;20417;-85
2023/09/20 11:02:57;;;;;;;2.20;1.80;;;23.00;1.00;;;;;;5014630;28;20897;-86
2023/09/20 11:05:29;;;;;;;1.88;1.65;;;23.00;1.00;;;;;;5013122;28;20769;-86
2023/09/20 11:07:55;;;;;;;2.20;1.50;;;23.00;1.00;;;;;;5021053;28;20400;-84
2023/09/20 11:10:22;;;;;;;2.45;1.60;;;23.30;1.00;;;;;;5019343;28;20468;-85
2023/09/20 11:12:50;;;;;;;1.60;1.30;;;23.30;1.00;;;;;;5015937;28;20429;-85
2023/09/20 11:15:16;;;;;;;2.33;1.80;;;23.40;1.00;;;;;;5015616;28;20940;-86
2023/09/20 11:17:41;;;;;;;2.33;1.40;;;23.70;1.00;;;;;;5014543;28;20908;-86
2023/09/20 11:20:08;;;;;;;2.57;1.60;;;23.80;1.00;;;;;;5019908;28;20399;-86
2023/09/20 11:22:34;;;;;;;1.90;1.27;;;24.20;1.00;;;;;;5037048;28;20429;-86
2023/09/20 11:25:00;;;;;;;2.17;1.33;;;24.70;1.00;;;;;;5037493;28;20472;-87
2023/09/20 11:27:27;;;;;;;1.90;1.50;;;25.40;1.00;;;;;;5015597;28;20393;-86
2023/09/20 11:29:53;;;;;;;2.30;1.42;;;26.20;1.00;;;;;;5014966;28;20399;-86
2023/09/20 11:32:22;;;;;;;1.50;1.10;;;27.20;1.00;;;;;;5014534;28;20393;-87
2023/09/20 11:34:49;;;;;;;2.38;1.60;;;27.90;1.00;;;;;;5014859;28;20998;-86
2023/09/20 11:37:18;;;;;;;1.70;1.20;;;27.60;1.00;;;;;;5014310;28;20393;-87
2023/09/20 11:39:49;;;;;;;1.70;1.60;;;28.20;1.00;;;;;;5016107;28;20443;-87
2023/09/20 11:42:36;;;;;;;2.83;1.50;;;27.70;1.00;;;;;;5014620;28;20381;-86
2023/09/20 11:45:10;;;;;;;3.10;1.48;;;27.80;1.00;;;;;;5013404;28;20750;-88
2023/09/20 11:47:42;;;;;;;1.90;1.33;;;27.70;1.00;;;;;;5017454;28;20884;-86
2023/09/20 11:50:14;;;;;;;1.90;1.23;;;27.60;1.00;;;;;;5015887;28;20491;-86
2023/09/20 11:52:47;;;;;;;2.00;1.20;;;27.30;1.00;;;;;;5013499;28;20415;-87
2023/09/20 11:55:13;;;;;;;1.40;1.30;;;27.40;1.00;;;;;;5011668;28;20420;-86
2023/09/20 11:57:46;;;;;;;2.60;1.40;;;26.70;1.00;;;;;;5012652;28;20399;-87
2023/09/20 12:00:19;;;;;;;3.97;1.30;;;27.20;1.00;;;;;;5013015;28;20508;-88
2023/09/20 12:02:46;;;;;;;1.67;1.20;;;25.80;1.00;;;;;;5013456;28;20400;-87
2023/09/20 12:05:11;;;;;;;1.30;1.20;;;26.50;1.00;;;;;;5013386;28;20403;-86
2023/09/20 12:07:37;;;;;;;1.50;1.40;;;26.70;1.00;;;;;;5013288;28;20385;-86
2023/09/20 12:10:03;;;;;;;2.70;1.33;;;25.90;1.00;;;;;;5013840;28;20400;-86
2023/09/20 12:12:31;;;;;;;1.90;1.23;;;26.10;1.00;;;;;;5012573;28;20397;-88
2023/09/20 12:14:56;;;;;;;1.88;1.13;;;26.60;1.00;;;;;;5012445;28;20401;-87
2023/09/20 12:17:22;;;;;;;1.80;1.20;;;26.60;1.00;;;;;;5012250;28;20518;-87
2023/09/20 12:19:48;;;;;;;1.30;1.10;;;27.40;1.00;;;;;;5013688;28;20406;-86
2023/09/20 12:22:14;;;;;;;1.60;1.10;;;26.00;1.00;;;;;;5012426;28;20388;-86
2023/09/20 12:24:39;;;;;;;1.40;1.27;;;26.30;1.00;;;;;;5013606;28;20392;-86
2023/09/20 12:27:05;;;;;;;1.30;1.00;;;26.70;1.00;;;;;;5013266;28;20404;-86
2023/09/20 12:29:31;;;;;;;1.92;1.00;;;26.40;1.00;;;;;;5017441;28;20412;-87
2023/09/20 12:31:56;;;;;;;1.60;1.00;;;26.00;1.00;;;;;;5011925;28;20401;-86
2023/09/20 12:34:22;;;;;;;1.60;1.30;;;27.90;1.00;;;;;;5011845;28;20415;-86
2023/09/20 12:36:48;;;;;;;1.80;1.42;;;27.40;1.00;;;;;;5011586;28;20388;-86
2023/09/20 12:39:16;;;;;;;1.50;1.20;;;26.80;1.00;;;;;;5012438;28;20555;-87
2023/09/20 12:41:42;;;;;;;1.30;1.20;;;27.00;1.00;;;;;;5011571;28;20491;-87
2023/09/20 12:44:09;;;;;;;2.17;1.20;;;27.10;1.00;;;;;;5016531;28;20447;-88
2023/09/20 12:46:37;;;;;;;1.38;1.15;;;26.90;1.00;;;;;;5012733;28;20396;-85
2023/09/20 12:49:06;;;;;;;1.45;1.10;;;26.90;1.00;;;;;;5012070;28;20408;-86
2023/09/20 12:51:32;;;;;;;1.27;1.00;;;27.30;1.00;;;;;;5012238;28;20399;-87
2023/09/20 12:53:57;;;;;;;1.07;0.97;;;27.60;1.00;;;;;;5016338;28;20412;-87
2023/09/20 12:56:23;;;;;;;1.90;1.30;;;27.10;1.00;;;;;;5019790;28;20396;-86
2023/09/20 12:58:50;;;;;;;1.60;1.30;;;26.90;1.00;;;;;;4991568;28;20386;-86
2023/09/20 13:01:16;;;;;;;1.15;1.05;;;26.90;1.00;;;;;;4993627;28;20390;-87
2023/09/20 13:03:42;;;;;;;1.30;1.00;;;27.20;1.00;;;;;;5024223;28;20412;-87
2023/09/20 13:06:13;;;;;;;1.87;1.20;;;26.80;1.00;;;;;;5019417;28;20392;-87
2023/09/20 13:08:40;;;;;;;1.38;1.00;;;26.70;1.00;;;;;;5031719;28;20396;-88
2023/09/20 13:11:11;;;;;;;1.23;1.13;;;27.30;1.00;;;;;;5017906;28;20408;-89
2023/09/20 13:13:42;;;;;;;1.63;1.10;;;27.00;1.00;;;;;;5019419;28;20533;-87
2023/09/20 13:16:14;;;;;;;1.40;1.20;;;27.90;1.00;;;;;;5020360;28;20388;-87
2023/09/20 13:18:40;;;;;;;2.47;1.30;;;26.00;1.00;;;;;;5019184;28;20908;-87
2023/09/20 13:21:05;;;;;;;1.40;1.30;;;27.00;1.00;;;;;;5034492;28;20395;-87
2023/09/20 13:23:31;;;;;;;2.40;1.10;;;26.90;1.00;;;;;;5050725;28;20378;-86
2023/09/20 13:25:57;;;;;;;1.50;1.10;;;26.70;1.00;;;;;;5036452;28;20443;-87
2023/09/20 13:28:22;;;;;;;1.57;1.20;;;27.50;1.00;;;;;;5018347;28;20408;-87
2023/09/20 13:30:48;;;;;;;1.50;1.10;;;26.90;1.00;;;;;;5025173;28;20389;-86
2023/09/20 13:33:14;;;;;;;1.98;1.40;;;27.10;1.00;;;;;;5020299;28;20560;-87
2023/09/20 13:35:40;;;;;;;1.10;1.00;;;27.30;1.00;;;;;;5017111;28;20387;-86
2023/09/20 13:38:06;;;;;;;2.05;1.15;;;27.60;1.00;;;;;;5015619;28;20927;-88
2023/09/20 13:40:33;;;;;;;2.20;1.30;;;26.90;1.00;;;;;;5016157;28;20381;-88
2023/09/20 13:42:58;;;;;;;1.10;1.00;;;27.30;1.00;;;;;;5016017;28;20904;-86